sensor_id;sensor_type;location;lat;lon;timestamp;temperature;humidity
65036;DHT22;51603;49.300;8.880;2024-01-07T00:01:47;4.80;99.90
65036;DHT22;51603;49.300;8.880;2024-01-07T00:04:15;4.80;99.90
65036;DHT22;51603;49.300;8.880;2024-01-07T00:06:40;4.80;99.90
65036;DHT22;51603;49.300;8.880;2024-01-07T00:09:06;4.80;99.90
65036;DHT22;51603;49.300;8.880;2024-01-07T00:11:31;4.80;99.90
65036;DHT22;51603;49.300;8.880;2024-01-07T00:13:57;4.80;99.90
65036;DHT22;51603;49.300;8.880;2024-01-07T00:16:23;4.80;99.90
65036;DHT22;51603;49.300;8.880;2024-01-07T00:18:49;4.80;99.90
65036;DHT22;51603;49.300;8.880;2024-01-07T00:21:14;4.80;99.90
65036;DHT22;51603;49.300;8.880;2024-01-07T00:23:40;4.80;99.90
65036;DHT22;51603;49.300;8.880;2024-01-07T00:26:06;4.80;99.90
65036;DHT22;51603;49.300;8.880;2024-01-07T00:28:32;4.80;99.90
65036;DHT22;51603;49.300;8.880;2024-01-07T00:30:57;4.80;99.90
65036;DHT22;51603;49.300;8.880;2024-01-07T00:33:23;4.80;99.90
65036;DHT22;51603;49.300;8.880;2024-01-07T00:35:48;4.80;99.90
65036;DHT22;51603;49.300;8.880;2024-01-07T00:38:14;4.80;99.90
65036;DHT22;51603;49.300;8.880;2024-01-07T00:40:39;4.80;99.90
65036;DHT22;51603;49.300;8.880;2024-01-07T00:43:05;4.80;99.90
65036;DHT22;51603;49.300;8.880;2024-01-07T00:45:30;4.80;99.90
65036;DHT22;51603;49.300;8.880;2024-01-07T00:47:56;4.80;99.90
65036;DHT22;51603;49.300;8.880;2024-01-07T00:50:22;4.80;99.90
65036;DHT22;51603;49.300;8.880;2024-01-07T00:52:47;4.80;99.90
65036;DHT22;51603;49.300;8.880;2024-01-07T00:55:13;4.80;99.90
65036;DHT22;51603;49.300;8.880;2024-01-07T00:57:38;4.80;99.90
65036;DHT22;51603;49.300;8.880;2024-01-07T01:00:07;4.80;99.90
65036;DHT22;51603;49.300;8.880;2024-01-07T01:02:33;4.80;99.90
65036;DHT22;51603;49.300;8.880;2024-01-07T01:04:59;4.80;99.90
65036;DHT22;51603;49.300;8.880;2024-01-07T01:07:24;4.80;99.90
65036;DHT22;51603;49.300;8.880;2024-01-07T01:09:50;4.80;99.90
65036;DHT22;51603;49.300;8.880;2024-01-07T01:12:15;4.80;99.90
65036;DHT22;51603;49.300;8.880;2024-01-07T01:14:41;4.80;99.90
65036;DHT22;51603;49.300;8.880;2024-01-07T01:17:14;4.80;99.90
65036;DHT22;51603;49.300;8.880;2024-01-07T01:19:40;4.80;99.90
65036;DHT22;51603;49.300;8.880;2024-01-07T01:22:05;4.80;99.90
65036;DHT22;51603;49.300;8.880;2024-01-07T01:24:31;4.80;99.90
65036;DHT22;51603;49.300;8.880;2024-01-07T01:26:56;4.80;99.90
65036;DHT22;51603;49.300;8.880;2024-01-07T01:29:22;4.70;99.90
65036;DHT22;51603;49.300;8.880;2024-01-07T01:31:47;4.80;99.90
65036;DHT22;51603;49.300;8.880;2024-01-07T01:34:13;4.80;99.90
65036;DHT22;51603;49.300;8.880;2024-01-07T01:36:39;4.80;99.90
65036;DHT22;51603;49.300;8.880;2024-01-07T01:39:04;4.80;99.90
65036;DHT22;51603;49.300;8.880;2024-01-07T01:41:30;4.70;99.90
65036;DHT22;51603;49.300;8.880;2024-01-07T01:43:59;4.70;99.90
65036;DHT22;51603;49.300;8.880;2024-01-07T01:46:26;4.70;99.90
65036;DHT22;51603;49.300;8.880;2024-01-07T01:48:51;4.80;99.90
65036;DHT22;51603;49.300;8.880;2024-01-07T01:51:18;4.80;99.90
65036;DHT22;51603;49.300;8.880;2024-01-07T01:53:44;4.70;99.90
65036;DHT22;51603;49.300;8.880;2024-01-07T01:56:10;4.70;99.90
65036;DHT22;51603;49.300;8.880;2024-01-07T01:58:36;4.80;99.90
65036;DHT22;51603;49.300;8.880;2024-01-07T02:01:03;4.80;99.90
65036;DHT22;51603;49.300;8.880;2024-01-07T02:03:29;4.80;99.90
65036;DHT22;51603;49.300;8.880;2024-01-07T02:05:55;4.80;99.90
65036;DHT22;51603;49.300;8.880;2024-01-07T02:08:21;4.80;99.90
65036;DHT22;51603;49.300;8.880;2024-01-07T02:10:47;4.80;99.90
65036;DHT22;51603;49.300;8.880;2024-01-07T02:13:13;4.80;99.90
65036;DHT22;51603;49.300;8.880;2024-01-07T02:15:38;4.80;99.90
65036;DHT22;51603;49.300;8.880;2024-01-07T02:18:04;4.80;99.90
65036;DHT22;51603;49.300;8.880;2024-01-07T02:20:30;4.80;99.90
65036;DHT22;51603;49.300;8.880;2024-01-07T02:22:55;4.80;99.90
65036;DHT22;51603;49.300;8.880;2024-01-07T02:25:23;4.80;99.90
65036;DHT22;51603;49.300;8.880;2024-01-07T02:27:49;4.70;99.90
65036;DHT22;51603;49.300;8.880;2024-01-07T02:30:14;4.70;99.90
65036;DHT22;51603;49.300;8.880;2024-01-07T02:32:40;4.70;99.90
65036;DHT22;51603;49.300;8.880;2024-01-07T02:35:06;4.70;99.90
65036;DHT22;51603;49.300;8.880;2024-01-07T02:37:31;4.60;99.90
65036;DHT22;51603;49.300;8.880;2024-01-07T02:39:57;4.60;99.90
65036;DHT22;51603;49.300;8.880;2024-01-07T02:42:22;4.60;99.90
65036;DHT22;51603;49.300;8.880;2024-01-07T02:44:48;4.60;99.90
65036;DHT22;51603;49.300;8.880;2024-01-07T02:47:13;4.60;99.90
65036;DHT22;51603;49.300;8.880;2024-01-07T02:49:39;4.60;99.90
65036;DHT22;51603;49.300;8.880;2024-01-07T02:52:05;4.60;99.90
65036;DHT22;51603;49.300;8.880;2024-01-07T02:54:30;4.60;99.90
65036;DHT22;51603;49.300;8.880;2024-01-07T02:56:56;4.60;99.90
65036;DHT22;51603;49.300;8.880;2024-01-07T02:59:21;4.60;99.90
65036;DHT22;51603;49.300;8.880;2024-01-07T03:01:47;4.60;99.90
65036;DHT22;51603;49.300;8.880;2024-01-07T03:04:13;4.60;99.90
65036;DHT22;51603;49.300;8.880;2024-01-07T03:06:39;4.60;99.90
65036;DHT22;51603;49.300;8.880;2024-01-07T03:09:05;4.60;99.90
65036;DHT22;51603;49.300;8.880;2024-01-07T03:11:30;4.60;99.90
65036;DHT22;51603;49.300;8.880;2024-01-07T03:13:56;4.50;99.90
65036;DHT22;51603;49.300;8.880;2024-01-07T03:16:23;4.50;99.90
65036;DHT22;51603;49.300;8.880;2024-01-07T03:18:49;4.50;99.90
65036;DHT22;51603;49.300;8.880;2024-01-07T03:21:22;4.50;99.90
65036;DHT22;51603;49.300;8.880;2024-01-07T03:23:49;4.50;99.90
65036;DHT22;51603;49.300;8.880;2024-01-07T03:26:16;4.50;99.90
65036;DHT22;51603;49.300;8.880;2024-01-07T03:28:41;4.50;99.90
65036;DHT22;51603;49.300;8.880;2024-01-07T03:31:15;4.50;99.90
65036;DHT22;51603;49.300;8.880;2024-01-07T03:33:42;4.50;99.90
65036;DHT22;51603;49.300;8.880;2024-01-07T03:36:09;4.50;99.90
65036;DHT22;51603;49.300;8.880;2024-01-07T03:38:35;4.50;99.90
65036;DHT22;51603;49.300;8.880;2024-01-07T03:41:01;4.50;99.90
65036;DHT22;51603;49.300;8.880;2024-01-07T03:43:27;4.50;99.90
65036;DHT22;51603;49.300;8.880;2024-01-07T03:45:52;4.50;99.90
65036;DHT22;51603;49.300;8.880;2024-01-07T03:48:19;4.50;99.90
65036;DHT22;51603;49.300;8.880;2024-01-07T03:50:45;4.50;99.90
65036;DHT22;51603;49.300;8.880;2024-01-07T03:53:10;4.40;99.90
65036;DHT22;51603;49.300;8.880;2024-01-07T03:55:36;4.40;99.90
65036;DHT22;51603;49.300;8.880;2024-01-07T03:58:01;4.40;99.90
65036;DHT22;51603;49.300;8.880;2024-01-07T04:00:28;4.40;99.90
65036;DHT22;51603;49.300;8.880;2024-01-07T04:02:53;4.40;99.90
65036;DHT22;51603;49.300;8.880;2024-01-07T04:05:19;4.40;99.90
65036;DHT22;51603;49.300;8.880;2024-01-07T04:07:45;4.40;99.90
65036;DHT22;51603;49.300;8.880;2024-01-07T04:10:10;4.40;99.90
65036;DHT22;51603;49.300;8.880;2024-01-07T04:12:36;4.40;99.90
65036;DHT22;51603;49.300;8.880;2024-01-07T04:15:02;4.40;99.90
65036;DHT22;51603;49.300;8.880;2024-01-07T04:17:28;4.40;99.90
65036;DHT22;51603;49.300;8.880;2024-01-07T04:19:54;4.40;99.90
65036;DHT22;51603;49.300;8.880;2024-01-07T04:22:20;4.40;99.90
65036;DHT22;51603;49.300;8.880;2024-01-07T04:24:45;4.40;99.90
65036;DHT22;51603;49.300;8.880;2024-01-07T04:27:11;4.40;99.90
65036;DHT22;51603;49.300;8.880;2024-01-07T04:29:37;4.40;99.90
65036;DHT22;51603;49.300;8.880;2024-01-07T04:32:02;4.40;99.90
65036;DHT22;51603;49.300;8.880;2024-01-07T04:34:28;4.40;99.90
65036;DHT22;51603;49.300;8.880;2024-01-07T04:36:53;4.30;99.90
65036;DHT22;51603;49.300;8.880;2024-01-07T04:39:19;4.30;99.90
65036;DHT22;51603;49.300;8.880;2024-01-07T04:41:45;4.30;99.90
65036;DHT22;51603;49.300;8.880;2024-01-07T04:44:10;4.30;99.90
65036;DHT22;51603;49.300;8.880;2024-01-07T04:46:39;4.30;99.90
65036;DHT22;51603;49.300;8.880;2024-01-07T04:49:05;4.30;99.90
65036;DHT22;51603;49.300;8.880;2024-01-07T04:51:31;4.30;99.90
65036;DHT22;51603;49.300;8.880;2024-01-07T04:53:57;4.30;99.90
65036;DHT22;51603;49.300;8.880;2024-01-07T04:56:23;4.30;99.90
65036;DHT22;51603;49.300;8.880;2024-01-07T04:58:48;4.30;99.90
65036;DHT22;51603;49.300;8.880;2024-01-07T05:01:14;4.30;99.90
65036;DHT22;51603;49.300;8.880;2024-01-07T05:03:39;4.20;99.90
65036;DHT22;51603;49.300;8.880;2024-01-07T05:06:07;4.20;99.90
65036;DHT22;51603;49.300;8.880;2024-01-07T05:08:33;4.20;99.90
65036;DHT22;51603;49.300;8.880;2024-01-07T05:10:59;4.20;99.90
65036;DHT22;51603;49.300;8.880;2024-01-07T05:13:24;4.20;99.90
65036;DHT22;51603;49.300;8.880;2024-01-07T05:15:50;4.20;99.90
65036;DHT22;51603;49.300;8.880;2024-01-07T05:18:22;4.30;99.90
65036;DHT22;51603;49.300;8.880;2024-01-07T05:20:48;4.30;99.90
65036;DHT22;51603;49.300;8.880;2024-01-07T05:23:14;4.30;99.90
65036;DHT22;51603;49.300;8.880;2024-01-07T05:25:39;4.30;99.90
65036;DHT22;51603;49.300;8.880;2024-01-07T05:28:05;4.30;99.90
65036;DHT22;51603;49.300;8.880;2024-01-07T05:30:31;4.30;99.90
65036;DHT22;51603;49.300;8.880;2024-01-07T05:32:57;4.30;99.90
65036;DHT22;51603;49.300;8.880;2024-01-07T05:35:22;4.30;99.90
65036;DHT22;51603;49.300;8.880;2024-01-07T05:37:48;4.30;99.90
65036;DHT22;51603;49.300;8.880;2024-01-07T05:40:14;4.40;99.90
65036;DHT22;51603;49.300;8.880;2024-01-07T05:42:39;4.40;99.90
65036;DHT22;51603;49.300;8.880;2024-01-07T05:45:05;4.40;99.90
65036;DHT22;51603;49.300;8.880;2024-01-07T05:47:31;4.40;99.90
65036;DHT22;51603;49.300;8.880;2024-01-07T05:49:56;4.40;99.90
65036;DHT22;51603;49.300;8.880;2024-01-07T05:52:22;4.40;99.90
65036;DHT22;51603;49.300;8.880;2024-01-07T05:54:48;4.40;99.90
65036;DHT22;51603;49.300;8.880;2024-01-07T05:57:13;4.40;99.90
65036;DHT22;51603;49.300;8.880;2024-01-07T05:59:39;4.40;99.90
65036;DHT22;51603;49.300;8.880;2024-01-07T06:02:04;4.40;99.90
65036;DHT22;51603;49.300;8.880;2024-01-07T06:04:30;4.40;99.90
65036;DHT22;51603;49.300;8.880;2024-01-07T06:06:55;4.40;99.90
65036;DHT22;51603;49.300;8.880;2024-01-07T06:09:21;4.40;99.90
65036;DHT22;51603;49.300;8.880;2024-01-07T06:11:47;4.40;99.90
65036;DHT22;51603;49.300;8.880;2024-01-07T06:14:12;4.40;99.90
65036;DHT22;51603;49.300;8.880;2024-01-07T06:16:38;4.40;99.90
65036;DHT22;51603;49.300;8.880;2024-01-07T06:19:03;4.50;99.90
65036;DHT22;51603;49.300;8.880;2024-01-07T06:21:29;4.40;99.90
65036;DHT22;51603;49.300;8.880;2024-01-07T06:23:55;4.50;99.90
65036;DHT22;51603;49.300;8.880;2024-01-07T06:26:20;4.50;99.90
65036;DHT22;51603;49.300;8.880;2024-01-07T06:28:46;4.50;99.90
65036;DHT22;51603;49.300;8.880;2024-01-07T06:31:11;4.50;99.90
65036;DHT22;51603;49.300;8.880;2024-01-07T06:33:37;4.50;99.90
65036;DHT22;51603;49.300;8.880;2024-01-07T06:36:03;4.50;99.90
65036;DHT22;51603;49.300;8.880;2024-01-07T06:38:29;4.50;99.90
65036;DHT22;51603;49.300;8.880;2024-01-07T06:40:55;4.50;99.90
65036;DHT22;51603;49.300;8.880;2024-01-07T06:43:21;4.50;99.90
65036;DHT22;51603;49.300;8.880;2024-01-07T06:45:46;4.50;99.90
65036;DHT22;51603;49.300;8.880;2024-01-07T06:48:12;4.50;99.90
65036;DHT22;51603;49.300;8.880;2024-01-07T06:50:37;4.50;99.90
65036;DHT22;51603;49.300;8.880;2024-01-07T06:53:03;4.50;99.90
65036;DHT22;51603;49.300;8.880;2024-01-07T06:55:29;4.50;99.90
65036;DHT22;51603;49.300;8.880;2024-01-07T06:57:54;4.50;99.90
65036;DHT22;51603;49.300;8.880;2024-01-07T07:00:20;4.50;99.90
65036;DHT22;51603;49.300;8.880;2024-01-07T07:02:45;4.50;99.90
65036;DHT22;51603;49.300;8.880;2024-01-07T07:05:11;4.50;99.90
65036;DHT22;51603;49.300;8.880;2024-01-07T07:07:37;4.50;99.90
65036;DHT22;51603;49.300;8.880;2024-01-07T07:10:02;4.50;99.90
65036;DHT22;51603;49.300;8.880;2024-01-07T07:12:29;4.50;99.90
65036;DHT22;51603;49.300;8.880;2024-01-07T07:14:54;4.50;99.90
65036;DHT22;51603;49.300;8.880;2024-01-07T07:17:20;4.50;99.90
65036;DHT22;51603;49.300;8.880;2024-01-07T07:19:45;4.50;99.90
65036;DHT22;51603;49.300;8.880;2024-01-07T07:22:11;4.50;99.90
65036;DHT22;51603;49.300;8.880;2024-01-07T07:24:40;4.50;99.90
65036;DHT22;51603;49.300;8.880;2024-01-07T07:27:06;4.50;99.90
65036;DHT22;51603;49.300;8.880;2024-01-07T07:29:31;4.50;99.90
65036;DHT22;51603;49.300;8.880;2024-01-07T07:31:57;4.50;99.90
65036;DHT22;51603;49.300;8.880;2024-01-07T07:34:22;4.50;99.90
65036;DHT22;51603;49.300;8.880;2024-01-07T07:36:48;4.50;99.90
65036;DHT22;51603;49.300;8.880;2024-01-07T07:39:13;4.50;99.90
65036;DHT22;51603;49.300;8.880;2024-01-07T07:41:40;4.50;99.90
65036;DHT22;51603;49.300;8.880;2024-01-07T07:44:05;4.50;99.90
65036;DHT22;51603;49.300;8.880;2024-01-07T07:46:31;4.50;99.90
65036;DHT22;51603;49.300;8.880;2024-01-07T07:48:57;4.50;99.90
65036;DHT22;51603;49.300;8.880;2024-01-07T07:51:23;4.50;99.90
65036;DHT22;51603;49.300;8.880;2024-01-07T07:53:49;4.50;99.90
65036;DHT22;51603;49.300;8.880;2024-01-07T07:56:14;4.50;99.90
65036;DHT22;51603;49.300;8.880;2024-01-07T07:58:40;4.60;99.90
65036;DHT22;51603;49.300;8.880;2024-01-07T08:01:05;4.60;99.90
65036;DHT22;51603;49.300;8.880;2024-01-07T08:03:32;4.50;99.90
65036;DHT22;51603;49.300;8.880;2024-01-07T08:05:58;4.60;99.90
65036;DHT22;51603;49.300;8.880;2024-01-07T08:08:23;4.50;99.90
65036;DHT22;51603;49.300;8.880;2024-01-07T08:10:49;4.50;99.90
65036;DHT22;51603;49.300;8.880;2024-01-07T08:13:14;4.60;99.90
65036;DHT22;51603;49.300;8.880;2024-01-07T08:15:40;4.50;99.90
65036;DHT22;51603;49.300;8.880;2024-01-07T08:18:05;4.50;99.90
65036;DHT22;51603;49.300;8.880;2024-01-07T08:20:31;4.50;99.90
65036;DHT22;51603;49.300;8.880;2024-01-07T08:22:56;4.50;99.90
65036;DHT22;51603;49.300;8.880;2024-01-07T08:25:22;4.50;99.90
65036;DHT22;51603;49.300;8.880;2024-01-07T08:27:49;4.50;99.90
65036;DHT22;51603;49.300;8.880;2024-01-07T08:30:14;4.40;99.90
65036;DHT22;51603;49.300;8.880;2024-01-07T08:32:40;4.40;99.90
65036;DHT22;51603;49.300;8.880;2024-01-07T08:35:06;4.40;99.90
65036;DHT22;51603;49.300;8.880;2024-01-07T08:37:32;4.40;99.90
65036;DHT22;51603;49.300;8.880;2024-01-07T08:39:58;4.40;99.90
65036;DHT22;51603;49.300;8.880;2024-01-07T08:42:24;4.40;99.90
65036;DHT22;51603;49.300;8.880;2024-01-07T08:44:50;4.40;99.90
65036;DHT22;51603;49.300;8.880;2024-01-07T08:47:16;4.50;99.90
65036;DHT22;51603;49.300;8.880;2024-01-07T08:49:41;4.40;99.90
65036;DHT22;51603;49.300;8.880;2024-01-07T08:52:07;4.50;99.90
65036;DHT22;51603;49.300;8.880;2024-01-07T08:54:32;4.50;99.90
65036;DHT22;51603;49.300;8.880;2024-01-07T08:56:58;4.50;99.90
65036;DHT22;51603;49.300;8.880;2024-01-07T08:59:24;4.50;99.90
65036;DHT22;51603;49.300;8.880;2024-01-07T09:01:49;4.50;99.90
65036;DHT22;51603;49.300;8.880;2024-01-07T09:04:15;4.50;99.90
65036;DHT22;51603;49.300;8.880;2024-01-07T09:06:43;4.50;99.90
65036;DHT22;51603;49.300;8.880;2024-01-07T09:09:09;4.60;99.90
65036;DHT22;51603;49.300;8.880;2024-01-07T09:11:34;4.60;99.90
65036;DHT22;51603;49.300;8.880;2024-01-07T09:14:01;4.70;99.90
65036;DHT22;51603;49.300;8.880;2024-01-07T09:16:26;4.70;99.90
65036;DHT22;51603;49.300;8.880;2024-01-07T09:18:52;4.70;99.90
65036;DHT22;51603;49.300;8.880;2024-01-07T09:21:17;4.70;99.90
65036;DHT22;51603;49.300;8.880;2024-01-07T09:23:44;4.70;99.90
65036;DHT22;51603;49.300;8.880;2024-01-07T09:26:10;4.70;99.90
65036;DHT22;51603;49.300;8.880;2024-01-07T09:28:36;4.70;99.90
65036;DHT22;51603;49.300;8.880;2024-01-07T09:31:02;4.70;99.90
65036;DHT22;51603;49.300;8.880;2024-01-07T09:33:27;4.60;99.90
65036;DHT22;51603;49.300;8.880;2024-01-07T09:35:53;4.60;99.90
65036;DHT22;51603;49.300;8.880;2024-01-07T09:38:19;4.60;99.90
65036;DHT22;51603;49.300;8.880;2024-01-07T09:40:45;4.60;99.90
65036;DHT22;51603;49.300;8.880;2024-01-07T09:43:11;4.50;99.90
65036;DHT22;51603;49.300;8.880;2024-01-07T09:45:38;4.50;99.90
65036;DHT22;51603;49.300;8.880;2024-01-07T09:48:06;4.40;99.90
65036;DHT22;51603;49.300;8.880;2024-01-07T09:50:32;4.40;99.90
65036;DHT22;51603;49.300;8.880;2024-01-07T09:52:58;4.40;99.90
65036;DHT22;51603;49.300;8.880;2024-01-07T09:55:33;4.40;99.90
65036;DHT22;51603;49.300;8.880;2024-01-07T09:57:59;4.30;99.90
65036;DHT22;51603;49.300;8.880;2024-01-07T10:00:26;4.40;99.90
65036;DHT22;51603;49.300;8.880;2024-01-07T10:02:52;4.30;99.90
65036;DHT22;51603;49.300;8.880;2024-01-07T10:05:18;4.30;99.90
65036;DHT22;51603;49.300;8.880;2024-01-07T10:07:43;4.30;99.90
65036;DHT22;51603;49.300;8.880;2024-01-07T10:10:16;4.30;99.90
65036;DHT22;51603;49.300;8.880;2024-01-07T10:12:44;4.30;99.90
65036;DHT22;51603;49.300;8.880;2024-01-07T10:15:10;4.20;99.90
65036;DHT22;51603;49.300;8.880;2024-01-07T10:17:36;4.20;99.90
65036;DHT22;51603;49.300;8.880;2024-01-07T10:20:03;4.10;99.90
65036;DHT22;51603;49.300;8.880;2024-01-07T10:22:30;4.00;99.90
65036;DHT22;51603;49.300;8.880;2024-01-07T10:24:55;4.00;99.90
65036;DHT22;51603;49.300;8.880;2024-01-07T10:27:22;4.00;99.90
65036;DHT22;51603;49.300;8.880;2024-01-07T10:29:48;4.00;99.90
65036;DHT22;51603;49.300;8.880;2024-01-07T10:32:19;4.00;99.90
65036;DHT22;51603;49.300;8.880;2024-01-07T10:34:46;4.10;99.90
65036;DHT22;51603;49.300;8.880;2024-01-07T10:37:15;4.10;99.90
65036;DHT22;51603;49.300;8.880;2024-01-07T10:39:40;4.10;99.90
65036;DHT22;51603;49.300;8.880;2024-01-07T10:42:07;4.20;99.90
65036;DHT22;51603;49.300;8.880;2024-01-07T10:44:33;4.20;99.90
65036;DHT22;51603;49.300;8.880;2024-01-07T10:47:06;4.20;99.90
65036;DHT22;51603;49.300;8.880;2024-01-07T10:49:32;4.30;99.90
65036;DHT22;51603;49.300;8.880;2024-01-07T10:52:06;4.30;99.90
65036;DHT22;51603;49.300;8.880;2024-01-07T10:54:32;4.40;99.90
65036;DHT22;51603;49.300;8.880;2024-01-07T10:57:04;4.40;99.90
65036;DHT22;51603;49.300;8.880;2024-01-07T10:59:32;4.40;99.90
65036;DHT22;51603;49.300;8.880;2024-01-07T11:01:59;4.40;99.90
65036;DHT22;51603;49.300;8.880;2024-01-07T11:04:56;4.40;99.90
65036;DHT22;51603;49.300;8.880;2024-01-07T11:07:34;4.40;99.90
65036;DHT22;51603;49.300;8.880;2024-01-07T11:10:13;4.40;99.90
65036;DHT22;51603;49.300;8.880;2024-01-07T11:12:40;4.30;99.90
65036;DHT22;51603;49.300;8.880;2024-01-07T11:15:05;4.30;99.90
65036;DHT22;51603;49.300;8.880;2024-01-07T11:20:05;4.30;99.90
65036;DHT22;51603;49.300;8.880;2024-01-07T11:22:31;4.30;99.90
65036;DHT22;51603;49.300;8.880;2024-01-07T11:24:57;4.30;99.90
65036;DHT22;51603;49.300;8.880;2024-01-07T11:27:25;4.20;99.90
65036;DHT22;51603;49.300;8.880;2024-01-07T11:30:01;4.20;99.90
65036;DHT22;51603;49.300;8.880;2024-01-07T11:32:30;4.10;99.90
65036;DHT22;51603;49.300;8.880;2024-01-07T11:34:56;4.20;99.90
65036;DHT22;51603;49.300;8.880;2024-01-07T11:37:24;4.20;99.90
65036;DHT22;51603;49.300;8.880;2024-01-07T11:39:53;4.20;99.90
65036;DHT22;51603;49.300;8.880;2024-01-07T11:42:20;4.20;99.90
65036;DHT22;51603;49.300;8.880;2024-01-07T11:44:52;4.10;99.90
65036;DHT22;51603;49.300;8.880;2024-01-07T11:47:19;4.10;99.90
65036;DHT22;51603;49.300;8.880;2024-01-07T11:49:48;4.10;99.90
65036;DHT22;51603;49.300;8.880;2024-01-07T11:52:15;4.10;99.90
65036;DHT22;51603;49.300;8.880;2024-01-07T11:54:41;4.10;99.90
65036;DHT22;51603;49.300;8.880;2024-01-07T11:57:07;4.00;99.90
65036;DHT22;51603;49.300;8.880;2024-01-07T11:59:35;4.00;99.90
65036;DHT22;51603;49.300;8.880;2024-01-07T12:02:02;4.00;99.90
65036;DHT22;51603;49.300;8.880;2024-01-07T12:04:30;3.90;99.90
65036;DHT22;51603;49.300;8.880;2024-01-07T12:06:56;3.80;99.90
65036;DHT22;51603;49.300;8.880;2024-01-07T12:09:21;3.80;99.90
65036;DHT22;51603;49.300;8.880;2024-01-07T12:11:47;3.70;99.90
65036;DHT22;51603;49.300;8.880;2024-01-07T12:14:13;3.70;99.90
65036;DHT22;51603;49.300;8.880;2024-01-07T12:16:40;3.80;99.90
65036;DHT22;51603;49.300;8.880;2024-01-07T12:19:08;3.80;99.90
65036;DHT22;51603;49.300;8.880;2024-01-07T12:21:34;3.70;99.90
65036;DHT22;51603;49.300;8.880;2024-01-07T12:24:00;3.70;99.90
65036;DHT22;51603;49.300;8.880;2024-01-07T12:26:27;3.60;99.90
65036;DHT22;51603;49.300;8.880;2024-01-07T12:28:58;3.50;99.90
65036;DHT22;51603;49.300;8.880;2024-01-07T12:31:35;3.60;99.90
65036;DHT22;51603;49.300;8.880;2024-01-07T12:34:02;3.50;99.90
65036;DHT22;51603;49.300;8.880;2024-01-07T12:36:31;3.60;99.90
65036;DHT22;51603;49.300;8.880;2024-01-07T12:38:57;3.50;99.90
65036;DHT22;51603;49.300;8.880;2024-01-07T12:41:23;3.50;99.90
65036;DHT22;51603;49.300;8.880;2024-01-07T12:43:49;3.40;99.90
65036;DHT22;51603;49.300;8.880;2024-01-07T12:46:15;3.50;99.90
65036;DHT22;51603;49.300;8.880;2024-01-07T12:48:41;3.40;99.90
65036;DHT22;51603;49.300;8.880;2024-01-07T12:51:07;3.50;99.90
65036;DHT22;51603;49.300;8.880;2024-01-07T12:53:32;3.50;99.90
65036;DHT22;51603;49.300;8.880;2024-01-07T12:55:58;3.40;99.90
65036;DHT22;51603;49.300;8.880;2024-01-07T12:58:23;3.40;99.90
65036;DHT22;51603;49.300;8.880;2024-01-07T13:00:49;3.30;99.90
65036;DHT22;51603;49.300;8.880;2024-01-07T13:03:14;3.30;99.90
65036;DHT22;51603;49.300;8.880;2024-01-07T13:05:46;3.30;99.90
65036;DHT22;51603;49.300;8.880;2024-01-07T13:08:14;3.30;99.90
65036;DHT22;51603;49.300;8.880;2024-01-07T13:10:39;3.30;99.90
65036;DHT22;51603;49.300;8.880;2024-01-07T13:13:05;3.30;99.90
65036;DHT22;51603;49.300;8.880;2024-01-07T13:15:31;3.30;99.90
65036;DHT22;51603;49.300;8.880;2024-01-07T13:17:57;3.30;99.90
65036;DHT22;51603;49.300;8.880;2024-01-07T13:20:23;3.30;99.90
65036;DHT22;51603;49.300;8.880;2024-01-07T13:22:49;3.30;99.90
65036;DHT22;51603;49.300;8.880;2024-01-07T13:25:15;3.30;99.90
65036;DHT22;51603;49.300;8.880;2024-01-07T13:27:40;3.30;99.90
65036;DHT22;51603;49.300;8.880;2024-01-07T13:30:08;3.20;99.90
65036;DHT22;51603;49.300;8.880;2024-01-07T13:32:35;3.20;99.90
65036;DHT22;51603;49.300;8.880;2024-01-07T13:35:04;3.20;99.90
65036;DHT22;51603;49.300;8.880;2024-01-07T13:37:29;3.20;99.90
65036;DHT22;51603;49.300;8.880;2024-01-07T13:39:56;3.20;99.90
65036;DHT22;51603;49.300;8.880;2024-01-07T13:42:22;3.20;99.90
65036;DHT22;51603;49.300;8.880;2024-01-07T13:44:47;3.10;99.90
65036;DHT22;51603;49.300;8.880;2024-01-07T13:47:14;3.20;99.90
65036;DHT22;51603;49.300;8.880;2024-01-07T13:49:40;3.20;99.90
65036;DHT22;51603;49.300;8.880;2024-01-07T13:52:06;3.10;99.90
65036;DHT22;51603;49.300;8.880;2024-01-07T13:54:31;3.10;99.90
65036;DHT22;51603;49.300;8.880;2024-01-07T13:56:57;3.10;99.90
65036;DHT22;51603;49.300;8.880;2024-01-07T13:59:22;3.10;99.90
65036;DHT22;51603;49.300;8.880;2024-01-07T14:01:48;3.10;99.90
65036;DHT22;51603;49.300;8.880;2024-01-07T14:04:14;3.10;99.90
65036;DHT22;51603;49.300;8.880;2024-01-07T14:06:40;3.10;99.90
65036;DHT22;51603;49.300;8.880;2024-01-07T14:09:06;3.10;99.90
65036;DHT22;51603;49.300;8.880;2024-01-07T14:11:33;3.10;99.90
65036;DHT22;51603;49.300;8.880;2024-01-07T14:13:59;3.10;99.90
65036;DHT22;51603;49.300;8.880;2024-01-07T14:16:27;3.00;99.90
65036;DHT22;51603;49.300;8.880;2024-01-07T14:18:53;3.00;99.90
65036;DHT22;51603;49.300;8.880;2024-01-07T14:21:19;2.90;99.90
65036;DHT22;51603;49.300;8.880;2024-01-07T14:23:44;2.80;99.90
65036;DHT22;51603;49.300;8.880;2024-01-07T14:26:10;2.80;99.90
65036;DHT22;51603;49.300;8.880;2024-01-07T14:28:35;2.80;99.90
65036;DHT22;51603;49.300;8.880;2024-01-07T14:31:01;2.80;99.90
65036;DHT22;51603;49.300;8.880;2024-01-07T14:33:27;2.70;99.90
65036;DHT22;51603;49.300;8.880;2024-01-07T14:35:52;2.70;99.90
65036;DHT22;51603;49.300;8.880;2024-01-07T14:38:18;2.70;99.90
65036;DHT22;51603;49.300;8.880;2024-01-07T14:40:44;2.70;99.90
65036;DHT22;51603;49.300;8.880;2024-01-07T14:43:12;2.70;99.90
65036;DHT22;51603;49.300;8.880;2024-01-07T14:45:37;2.70;99.90
65036;DHT22;51603;49.300;8.880;2024-01-07T14:48:03;2.70;99.90
65036;DHT22;51603;49.300;8.880;2024-01-07T14:50:29;2.70;99.90
65036;DHT22;51603;49.300;8.880;2024-01-07T14:52:55;2.60;99.90
65036;DHT22;51603;49.300;8.880;2024-01-07T14:55:20;2.60;99.90
65036;DHT22;51603;49.300;8.880;2024-01-07T14:57:46;2.60;99.90
65036;DHT22;51603;49.300;8.880;2024-01-07T15:00:12;2.60;99.90
65036;DHT22;51603;49.300;8.880;2024-01-07T15:02:38;2.60;99.90
65036;DHT22;51603;49.300;8.880;2024-01-07T15:05:04;2.50;99.90
65036;DHT22;51603;49.300;8.880;2024-01-07T15:07:30;2.50;99.90
65036;DHT22;51603;49.300;8.880;2024-01-07T15:09:56;2.50;99.90
65036;DHT22;51603;49.300;8.880;2024-01-07T15:12:21;2.50;99.90
65036;DHT22;51603;49.300;8.880;2024-01-07T15:14:48;2.50;99.90
65036;DHT22;51603;49.300;8.880;2024-01-07T15:17:13;2.50;99.90
65036;DHT22;51603;49.300;8.880;2024-01-07T15:19:42;2.40;99.90
65036;DHT22;51603;49.300;8.880;2024-01-07T15:22:07;2.40;99.90
65036;DHT22;51603;49.300;8.880;2024-01-07T15:24:33;2.40;99.90
65036;DHT22;51603;49.300;8.880;2024-01-07T15:26:59;2.40;99.90
65036;DHT22;51603;49.300;8.880;2024-01-07T15:29:25;2.30;99.90
65036;DHT22;51603;49.300;8.880;2024-01-07T15:31:50;2.30;99.90
65036;DHT22;51603;49.300;8.880;2024-01-07T15:34:16;2.30;99.90
65036;DHT22;51603;49.300;8.880;2024-01-07T15:36:41;2.30;99.90
65036;DHT22;51603;49.300;8.880;2024-01-07T15:39:07;2.20;99.90
65036;DHT22;51603;49.300;8.880;2024-01-07T15:41:35;2.20;99.90